createdAt,value
2019-04-27T00:02:18.096Z,50.27
2019-04-27T00:05:04.915Z,50.46
2019-04-27T00:08:00.767Z,50.63
2019-04-27T00:10:38.735Z,50.70
2019-04-27T00:13:10.900Z,51.13
2019-04-27T00:15:57.732Z,51.46
2019-04-27T00:18:49.719Z,51.50
2019-04-27T00:21:35.911Z,51.84
2019-04-27T00:24:07.913Z,51.92
2019-04-27T00:26:39.963Z,52.32
2019-04-27T00:29:13.632Z,52.41
2019-04-27T00:31:46.069Z,52.40
2019-04-27T00:34:18.196Z,52.65
2019-04-27T00:37:18.120Z,52.99
2019-04-27T00:40:09.026Z,53.14
2019-04-27T00:42:41.192Z,53.74
2019-04-27T00:45:14.042Z,54.06
2019-04-27T00:47:56.534Z,54.55
2019-04-27T00:50:19.653Z,54.63
2019-04-27T00:52:53.209Z,54.70
2019-04-27T00:55:25.313Z,54.81
2019-04-27T00:58:23.226Z,55.09
2019-04-27T01:01:23.410Z,55.28
2019-04-27T01:03:58.437Z,55.62
2019-04-27T01:06:30.776Z,56.01
2019-04-27T01:09:05.800Z,56.19
2019-04-27T01:11:37.858Z,56.47
2019-04-27T01:14:09.832Z,56.60
2019-04-27T01:16:41.818Z,56.61
2019-04-27T01:19:13.870Z,57.02
2019-04-27T01:21:45.814Z,57.09
2019-04-27T01:24:18.897Z,57.08
2019-04-27T01:27:15.865Z,57.00
2019-04-27T01:29:49.843Z,57.16
2019-04-27T01:32:21.653Z,57.33
2019-04-27T01:34:53.642Z,57.64
2019-04-27T01:37:25.600Z,58.03
2019-04-27T01:39:59.024Z,57.92
2019-04-27T01:42:31.175Z,57.85
2019-04-27T01:45:03.220Z,58.17
2019-04-27T01:47:35.244Z,58.31
2019-04-27T01:50:08.734Z,58.33
2019-04-27T01:52:41.035Z,58.57
2019-04-27T01:55:13.227Z,58.79
2019-04-27T01:57:45.180Z,58.98
2019-04-27T02:01:09.731Z,59.16
2019-04-27T02:03:50.322Z,59.19
2019-04-27T02:06:22.315Z,59.48
2019-04-27T02:08:54.256Z,59.94
2019-04-27T02:11:26.232Z,60.24
2019-04-27T02:13:59.441Z,60.15
2019-04-27T02:16:31.576Z,60.32
2019-04-27T02:19:03.582Z,60.51
2019-04-27T02:21:35.613Z,60.76
2019-04-27T02:24:09.781Z,60.74
2019-04-27T02:26:42.157Z,61.12
2019-04-27T02:29:25.576Z,61.21
2019-04-27T02:32:21.425Z,61.22
2019-04-27T02:35:09.165Z,61.18
2019-04-27T02:37:41.480Z,61.22
2019-04-27T02:40:51.634Z,61.47
2019-04-27T02:43:29.823Z,61.71
2019-04-27T02:46:01.864Z,61.78
2019-04-27T02:48:33.831Z,61.90
2019-04-27T02:51:09.913Z,61.85
2019-04-27T02:53:59.769Z,61.93
2019-04-27T02:56:31.343Z,61.80
2019-04-27T02:59:03.281Z,61.88
2019-04-27T03:01:46.210Z,61.75
2019-04-27T03:04:14.382Z,61.85
2019-04-27T03:06:46.360Z,62.00
2019-04-27T03:09:20.553Z,62.16
2019-04-27T03:11:52.169Z,62.30
2019-04-27T03:14:46.648Z,62.62
2019-04-27T03:17:31.049Z,63.03
2019-04-27T03:20:19.969Z,63.27
2019-04-27T03:22:54.621Z,63.58
2019-04-27T03:25:36.519Z,64.00
2019-04-27T03:28:11.254Z,63.93
2019-04-27T03:30:43.781Z,64.18
2019-04-27T03:33:16.027Z,64.17
2019-04-27T03:35:51.641Z,64.25
2019-04-27T03:38:22.156Z,63.96
2019-04-27T03:40:54.310Z,63.82
2019-04-27T03:43:26.363Z,63.33
2019-04-27T03:46:00.401Z,63.00
2019-04-27T03:48:32.065Z,62.80
2019-04-27T03:51:29.878Z,62.37
2019-04-27T03:54:22.205Z,62.17
2019-04-27T03:57:02.389Z,61.90
2019-04-27T03:59:53.560Z,62.03
2019-04-27T04:02:25.522Z,62.20
2019-04-27T04:04:59.570Z,62.33
2019-04-27T04:07:31.308Z,62.40
2019-04-27T04:10:03.458Z,62.41
2019-04-27T04:13:01.324Z,62.43
2019-04-27T04:16:10.841Z,62.33
2019-04-27T04:19:03.994Z,62.01
2019-04-27T04:21:36.063Z,61.85
2019-04-27T04:24:09.002Z,61.72
2019-04-27T04:26:41.699Z,61.90
2019-04-27T04:29:13.690Z,61.95
2019-04-27T04:31:45.669Z,62.01
2019-04-27T04:34:19.748Z,62.05
2019-04-27T04:36:51.375Z,61.85
2019-04-27T04:39:23.350Z,61.79
2019-04-27T04:42:10.621Z,62.00
2019-04-27T04:45:05.012Z,62.75
2019-04-27T04:48:09.889Z,63.84
2019-04-27T04:50:41.407Z,64.65
2019-04-27T04:53:13.422Z,65.88
2019-04-27T04:55:45.375Z,66.97
2019-04-27T04:58:20.705Z,67.89
2019-04-27T05:00:51.372Z,68.76
2019-04-27T05:03:23.344Z,69.91
2019-04-27T05:05:55.361Z,70.20
2019-04-27T05:08:29.123Z,70.27
2019-04-27T05:11:00.998Z,71.05
2019-04-27T05:13:33.006Z,71.28
2019-04-27T05:16:04.996Z,72.05
2019-04-27T05:18:37.031Z,71.71
2019-04-27T05:21:23.898Z,71.80
2019-04-27T05:23:55.890Z,71.79
2019-04-27T05:26:29.372Z,71.72
2019-04-27T05:29:01.526Z,71.63
2019-04-27T05:31:33.539Z,71.80
2019-04-27T05:34:06.869Z,71.76
2019-04-27T05:36:41.684Z,71.25
2019-04-27T05:39:13.331Z,70.86
2019-04-27T05:41:45.533Z,70.06
2019-04-27T05:44:46.616Z,69.35
2019-04-27T05:47:43.274Z,69.55
2019-04-27T05:50:18.254Z,69.24
2019-04-27T05:52:50.804Z,69.54
2019-04-27T05:55:22.751Z,69.81
2019-04-27T05:57:54.827Z,69.86
2019-04-27T06:00:26.775Z,69.67
2019-04-27T06:02:59.120Z,69.54
2019-04-27T06:05:31.304Z,69.58
2019-04-27T06:08:03.310Z,69.26
2019-04-27T06:10:35.271Z,69.52
2019-04-27T06:13:08.423Z,69.27
2019-04-27T06:15:41.020Z,69.75
2019-04-27T06:18:12.982Z,70.62
2019-04-27T06:20:53.438Z,71.25
2019-04-27T06:23:21.009Z,72.30
2019-04-27T06:25:52.893Z,72.84
2019-04-27T06:28:24.868Z,72.79
2019-04-27T06:30:56.868Z,73.21
2019-04-27T06:33:34.151Z,73.74
2019-04-27T06:36:02.540Z,73.81
2019-04-27T06:38:34.560Z,73.50
2019-04-27T06:41:06.579Z,73.31
2019-04-27T06:43:40.453Z,72.85
2019-04-27T06:46:12.706Z,72.31
2019-04-27T06:48:44.728Z,72.17
2019-04-27T06:51:16.658Z,71.32
2019-04-27T06:53:49.423Z,70.23
2019-04-27T06:56:21.552Z,69.11
2019-04-27T06:58:53.569Z,68.29
2019-04-27T07:01:25.585Z,67.29
2019-04-27T07:03:57.585Z,66.68
2019-04-27T07:06:30.042Z,65.86
2019-04-27T07:09:02.142Z,65.59
2019-04-27T07:11:34.180Z,65.41
2019-04-27T07:14:06.238Z,65.27
2019-04-27T07:16:39.174Z,65.56
2019-04-27T07:19:11.381Z,65.19
2019-04-27T07:21:43.376Z,64.91
2019-04-27T07:24:15.339Z,65.29
2019-04-27T07:26:48.819Z,65.86
2019-04-27T07:29:23.191Z,65.78
2019-04-27T07:31:54.775Z,66.58
2019-04-27T07:34:26.778Z,67.29
2019-04-27T07:36:59.737Z,67.36
2019-04-27T07:39:31.954Z,67.67
2019-04-27T07:42:03.922Z,67.48
2019-04-27T07:44:50.103Z,67.58
2019-04-27T07:47:23.972Z,67.65
2019-04-27T07:49:55.930Z,67.89
2019-04-27T07:52:28.708Z,67.98
2019-04-27T07:55:00.839Z,68.19
2019-04-27T07:57:32.842Z,68.25
2019-04-27T08:00:05.597Z,68.66
2019-04-27T08:02:39.029Z,68.77
2019-04-27T08:05:11.391Z,68.74
2019-04-27T08:07:43.514Z,68.87
2019-04-27T08:10:15.768Z,68.87
2019-04-27T08:12:49.655Z,68.41
2019-04-27T08:15:21.385Z,67.25
2019-04-27T08:17:53.425Z,65.49
2019-04-27T08:20:25.376Z,64.54
2019-04-27T08:22:57.373Z,64.58
2019-04-27T08:25:30.789Z,64.76
2019-04-27T08:28:13.010Z,64.46
2019-04-27T08:31:09.730Z,64.89
2019-04-27T08:33:41.751Z,65.30
2019-04-27T08:36:13.780Z,64.95
2019-04-27T08:38:45.838Z,63.96
2019-04-27T08:41:19.732Z,63.65
2019-04-27T08:43:51.608Z,64.18
2019-04-27T08:46:23.615Z,64.78
2019-04-27T08:48:55.735Z,65.55
2019-04-27T08:51:29.126Z,66.22
2019-04-27T08:54:01.242Z,66.44
2019-04-27T08:56:33.807Z,66.91
2019-04-27T08:59:05.807Z,67.07
2019-04-27T09:01:39.346Z,67.56
2019-04-27T09:04:11.977Z,68.11
2019-04-27T09:06:45.863Z,68.78
2019-04-27T09:09:41.349Z,69.47
2019-04-27T09:12:30.758Z,70.41
2019-04-27T09:15:09.992Z,70.86
2019-04-27T09:17:48.835Z,69.86
2019-04-27T09:20:42.739Z,70.17
2019-04-27T09:23:14.731Z,70.15
2019-04-27T09:25:46.816Z,70.21
2019-04-27T09:28:21.566Z,70.48
2019-04-27T09:30:52.420Z,70.05
2019-04-27T09:33:24.453Z,70.68
2019-04-27T09:35:56.790Z,72.26
2019-04-27T09:38:29.786Z,72.97
2019-04-27T09:41:01.830Z,73.05
2019-04-27T09:43:33.820Z,73.37
2019-04-27T09:46:05.914Z,73.45
2019-04-27T09:48:38.048Z,73.58
2019-04-27T09:51:10.464Z,73.90
2019-04-27T09:53:42.421Z,74.17
2019-04-27T09:56:16.361Z,73.60
2019-04-27T09:58:48.121Z,73.58
2019-04-27T10:01:20.135Z,73.91
2019-04-27T10:03:52.136Z,74.01
2019-04-27T10:06:24.136Z,74.47
2019-04-27T10:08:57.703Z,74.55
2019-04-27T10:11:30.178Z,74.55
2019-04-27T10:14:02.104Z,74.17
2019-04-27T10:16:34.122Z,73.68
2019-04-27T10:19:06.237Z,72.72
2019-04-27T10:21:38.204Z,72.00
2019-04-27T10:24:10.426Z,71.79
2019-04-27T10:26:43.882Z,71.91
2019-04-27T10:29:16.267Z,71.70
2019-04-27T10:31:48.433Z,71.96
2019-04-27T10:34:20.412Z,72.27
2019-04-27T10:36:52.505Z,72.50
2019-04-27T10:39:27.409Z,72.26
2019-04-27T10:41:58.293Z,72.30
2019-04-27T10:44:30.733Z,72.93
2019-04-27T10:47:02.751Z,73.46
2019-04-27T10:49:36.396Z,73.95
2019-04-27T10:52:08.387Z,74.31
2019-04-27T10:54:40.803Z,74.54
2019-04-27T10:57:12.792Z,74.62
2019-04-27T10:59:46.181Z,74.96
2019-04-27T11:02:18.341Z,75.05
2019-04-27T11:04:59.802Z,74.80
2019-04-27T11:07:37.257Z,74.81
2019-04-27T11:10:09.961Z,75.05
2019-04-27T11:12:41.913Z,74.84
2019-04-27T11:15:16.444Z,75.14
2019-04-27T11:17:48.565Z,75.99
2019-04-27T11:20:21.206Z,76.49
2019-04-27T11:23:00.763Z,77.08
2019-04-27T11:25:26.913Z,77.71
2019-04-27T11:28:02.147Z,78.01
2019-04-27T11:30:34.167Z,79.00
2019-04-27T11:33:06.367Z,79.85
2019-04-27T11:36:03.139Z,79.18
2019-04-27T11:38:36.564Z,79.67
2019-04-27T11:41:08.692Z,77.98
2019-04-27T11:43:40.976Z,77.01
2019-04-27T11:46:12.969Z,75.89
2019-04-27T11:48:46.552Z,73.57
2019-04-27T11:51:18.716Z,72.48
2019-04-27T11:53:51.039Z,71.32
2019-04-27T11:56:23.076Z,70.89
2019-04-27T11:58:56.074Z,70.20
2019-04-27T12:01:28.278Z,69.24
2019-04-27T12:04:00.604Z,67.27
2019-04-27T12:06:32.612Z,64.36
2019-04-27T12:09:05.963Z,61.98
2019-04-27T12:11:37.979Z,61.57
2019-04-27T12:14:09.974Z,62.31
2019-04-27T12:16:41.960Z,63.29
2019-04-27T12:19:14.058Z,64.72
2019-04-27T12:21:46.419Z,65.58
2019-04-27T12:24:18.534Z,66.58
2019-04-27T12:26:57.814Z,65.49
2019-04-27T12:29:47.413Z,64.18
2019-04-27T12:32:20.490Z,63.74
2019-04-27T12:34:52.568Z,62.59
2019-04-27T12:37:24.534Z,61.90
2019-04-27T12:39:57.633Z,62.36
2019-04-27T12:42:30.236Z,61.72
2019-04-27T12:45:02.322Z,62.49
2019-04-27T12:47:34.291Z,62.58
2019-04-27T12:50:09.222Z,62.18
2019-04-27T12:52:43.394Z,62.33
2019-04-27T12:55:37.734Z,61.33
2019-04-27T12:58:30.148Z,60.84
2019-04-27T13:01:02.943Z,59.96
2019-04-27T13:03:36.355Z,60.35
2019-04-27T13:06:08.560Z,59.68
2019-04-27T13:08:40.823Z,58.22
2019-04-27T13:11:12.836Z,56.47
2019-04-27T13:13:44.821Z,54.33
2019-04-27T13:16:16.945Z,51.87
2019-04-27T13:18:49.052Z,49.85
2019-04-27T13:21:21.038Z,50.64
2019-04-27T13:24:02.112Z,51.20
2019-04-27T13:26:26.795Z,51.16
2019-04-27T13:28:59.185Z,52.38
2019-04-27T13:31:31.277Z,53.55
2019-04-27T13:34:03.270Z,54.14
2019-04-27T13:36:36.779Z,54.97
2019-04-27T13:39:09.618Z,55.56
2019-04-27T13:41:41.607Z,55.94
2019-04-27T13:44:13.603Z,57.17
2019-04-27T13:47:02.968Z,58.11
2019-04-27T13:49:52.238Z,59.51
2019-04-27T13:52:29.807Z,60.43
2019-04-27T13:55:01.007Z,60.61
2019-04-27T13:57:32.992Z,60.87
2019-04-27T14:00:06.134Z,60.87
2019-04-27T14:02:38.139Z,60.99
2019-04-27T14:05:11.859Z,61.18
2019-04-27T14:07:44.161Z,61.15
2019-04-27T14:10:17.949Z,61.34
2019-04-27T14:12:51.328Z,61.10
2019-04-27T14:15:23.337Z,60.81
2019-04-27T14:17:55.400Z,60.13
2019-04-27T14:20:28.756Z,57.73
2019-04-27T14:23:15.645Z,54.80
2019-04-27T14:25:48.023Z,52.77
2019-04-27T14:28:20.120Z,53.25
2019-04-27T14:30:52.318Z,53.42
2019-04-27T14:33:24.376Z,53.13
2019-04-27T14:35:56.390Z,52.64
2019-04-27T14:38:28.410Z,51.46
2019-04-27T14:41:00.834Z,51.02
2019-04-27T14:43:32.796Z,50.07
2019-04-27T14:46:04.891Z,50.80
2019-04-27T14:48:36.880Z,50.09
2019-04-27T14:51:09.028Z,50.30
2019-04-27T14:53:41.214Z,51.09
2019-04-27T14:56:13.274Z,50.96
2019-04-27T14:58:45.398Z,51.27
2019-04-27T15:01:18.788Z,50.90
2019-04-27T15:03:51.083Z,50.07
2019-04-27T15:06:23.093Z,50.26
2019-04-27T15:08:55.784Z,50.31
2019-04-27T15:11:28.135Z,49.89
2019-04-27T15:14:02.590Z,49.65
2019-04-27T15:16:37.784Z,49.26
2019-04-27T15:19:13.250Z,49.16
2019-04-27T15:21:56.419Z,49.44
2019-04-27T15:24:21.312Z,49.46
2019-04-27T15:26:54.402Z,49.68
2019-04-27T15:29:29.215Z,50.09
2019-04-27T15:32:04.271Z,50.84
2019-04-27T15:35:05.357Z,50.89
2019-04-27T15:37:57.890Z,50.84
2019-04-27T15:40:54.165Z,51.27
2019-04-27T15:43:27.394Z,52.40
2019-04-27T15:46:01.374Z,53.65
2019-04-27T15:48:34.107Z,54.61
2019-04-27T15:51:14.633Z,54.63
2019-04-27T15:53:41.581Z,54.29
2019-04-27T15:56:14.408Z,54.12
2019-04-27T15:58:48.222Z,53.90
2019-04-27T16:01:20.460Z,54.23
2019-04-27T16:03:52.529Z,54.78
2019-04-27T16:06:24.550Z,55.14
2019-04-27T16:08:56.705Z,55.09
2019-04-27T16:11:28.715Z,55.26
2019-04-27T16:14:02.990Z,56.12
2019-04-27T16:16:34.772Z,56.70
2019-04-27T16:19:10.202Z,57.16
2019-04-27T16:21:46.957Z,57.93
2019-04-27T16:24:16.939Z,58.93
2019-04-27T16:26:54.616Z,58.82
2019-04-27T16:29:23.080Z,58.96
2019-04-27T16:31:56.050Z,58.77
2019-04-27T16:34:28.679Z,58.89
2019-04-27T16:37:01.362Z,59.36
2019-04-27T16:39:33.413Z,59.73
2019-04-27T16:42:08.127Z,59.91
2019-04-27T16:44:40.255Z,60.26
2019-04-27T16:47:18.893Z,60.26
2019-04-27T16:49:48.436Z,60.02
2019-04-27T16:52:20.503Z,60.34
2019-04-27T16:54:57.731Z,60.86
2019-04-27T16:57:32.456Z,61.21
2019-04-27T17:00:08.352Z,61.40
2019-04-27T17:02:40.580Z,61.45
2019-04-27T17:05:13.220Z,61.90
2019-04-27T17:07:45.218Z,62.38
2019-04-27T17:10:25.430Z,62.83
2019-04-27T17:12:51.930Z,62.98
2019-04-27T17:15:42.250Z,63.35
2019-04-27T17:18:39.842Z,63.77
2019-04-27T17:21:18.799Z,63.94
2019-04-27T17:23:45.773Z,64.14
2019-04-27T17:26:21.706Z,64.60
2019-04-27T17:29:00.501Z,64.70
2019-04-27T17:31:34.242Z,65.08
2019-04-27T17:34:08.038Z,65.19
2019-04-27T17:36:40.527Z,65.05
2019-04-27T17:39:12.850Z,65.41
2019-04-27T17:41:49.257Z,65.66
2019-04-27T17:44:22.718Z,65.73
2019-04-27T17:46:52.412Z,65.73
2019-04-27T17:49:24.454Z,65.86
2019-04-27T17:51:58.412Z,66.02
2019-04-27T17:54:30.112Z,66.35
2019-04-27T17:57:02.159Z,66.48
2019-04-27T17:59:37.223Z,66.56
2019-04-27T18:02:08.933Z,66.99
2019-04-27T18:04:41.368Z,67.42
2019-04-27T18:07:13.543Z,67.61
2019-04-27T18:09:45.496Z,67.96
2019-04-27T18:12:18.354Z,68.32
2019-04-27T18:14:50.831Z,68.26
2019-04-27T18:17:24.080Z,68.35
2019-04-27T18:19:59.652Z,68.57
2019-04-27T18:22:36.625Z,68.45
2019-04-27T18:25:09.963Z,68.44
2019-04-27T18:28:00.967Z,68.69
2019-04-27T18:31:01.033Z,68.91
2019-04-27T18:33:37.066Z,69.47
2019-04-27T18:36:13.586Z,69.27
2019-04-27T18:38:40.612Z,69.30
2019-04-27T18:41:12.685Z,69.23
2019-04-27T18:43:50.603Z,69.50
2019-04-27T18:46:21.997Z,69.58
2019-04-27T18:49:11.062Z,69.45
2019-04-27T18:51:59.390Z,69.50
2019-04-27T18:54:28.794Z,69.54
2019-04-27T18:57:04.285Z,69.57
2019-04-27T18:59:35.066Z,69.39
2019-04-27T19:02:08.489Z,69.35
2019-04-27T19:04:41.005Z,69.36
2019-04-27T19:07:13.050Z,69.86
2019-04-27T19:09:45.062Z,69.91
2019-04-27T19:12:18.243Z,70.28
2019-04-27T19:14:50.527Z,70.43
2019-04-27T19:17:22.510Z,70.49
2019-04-27T19:19:54.535Z,70.47
2019-04-27T19:22:27.971Z,70.62
2019-04-27T19:25:00.597Z,70.59
2019-04-27T19:27:51.435Z,70.71
2019-04-27T19:30:34.027Z,71.01
2019-04-27T19:33:07.651Z,71.76
2019-04-27T19:35:40.302Z,71.34
2019-04-27T19:38:12.474Z,71.30
2019-04-27T19:40:44.506Z,71.13
2019-04-27T19:43:18.082Z,71.17
2019-04-27T19:45:50.225Z,71.25
2019-04-27T19:48:22.246Z,71.27
2019-04-27T19:50:54.243Z,71.15
2019-04-27T19:53:26.259Z,71.31
2019-04-27T19:56:04.081Z,71.16
2019-04-27T19:58:41.060Z,71.34
2019-04-27T20:01:20.494Z,71.80
2019-04-27T20:04:01.146Z,71.66
2019-04-27T20:06:33.188Z,71.50
2019-04-27T20:09:15.685Z,71.72
2019-04-27T20:11:47.697Z,71.75
2019-04-27T20:14:20.870Z,71.75
2019-04-27T20:16:53.109Z,72.29
2019-04-27T20:19:25.110Z,71.91
2019-04-27T20:21:57.176Z,72.02
2019-04-27T20:24:31.395Z,72.44
2019-04-27T20:27:03.062Z,72.54
2019-04-27T20:29:35.195Z,72.57
2019-04-27T20:32:07.199Z,72.93
2019-04-27T20:34:41.130Z,73.24
2019-04-27T20:37:12.843Z,73.09
2019-04-27T20:39:44.826Z,73.72
2019-04-27T20:42:16.799Z,73.56
2019-04-27T20:44:48.829Z,74.10
2019-04-27T20:47:21.095Z,73.89
2019-04-27T20:49:53.223Z,74.26
2019-04-27T20:52:53.223Z,74.47
2019-04-27T20:55:25.542Z,74.81
2019-04-27T20:58:02.139Z,75.14
2019-04-27T21:00:32.057Z,75.29
2019-04-27T21:03:25.978Z,75.54
2019-04-27T21:06:21.550Z,75.30
2019-04-27T21:08:53.576Z,75.32
2019-04-27T21:11:27.243Z,75.28
2019-04-27T21:14:00.953Z,75.22
2019-04-27T21:16:33.053Z,75.49
2019-04-27T21:19:05.232Z,75.55
2019-04-27T21:21:37.204Z,75.67
2019-04-27T21:24:09.326Z,75.46
2019-04-27T21:26:41.978Z,75.40
2019-04-27T21:29:14.213Z,75.33
2019-04-27T21:31:46.426Z,75.53
2019-04-27T21:34:18.584Z,75.32
2019-04-27T21:36:51.118Z,75.23
2019-04-27T21:39:23.152Z,75.30
2019-04-27T21:41:55.149Z,75.83
2019-04-27T21:44:27.134Z,76.00
2019-04-27T21:47:00.714Z,75.96
2019-04-27T21:49:32.850Z,75.81
2019-04-27T21:52:14.373Z,75.76
2019-04-27T21:54:45.191Z,75.99
2019-04-27T21:57:17.250Z,75.81
2019-04-27T21:59:49.223Z,76.27
2019-04-27T22:02:21.770Z,76.60
2019-04-27T22:04:54.072Z,76.54
2019-04-27T22:07:26.166Z,76.67
2019-04-27T22:09:58.138Z,76.86
2019-04-27T22:12:31.302Z,77.06
2019-04-27T22:15:03.520Z,76.99
2019-04-27T22:17:35.728Z,76.98
2019-04-27T22:20:08.836Z,77.53
2019-04-27T22:22:45.778Z,77.64
2019-04-27T22:25:18.948Z,77.82
2019-04-27T22:27:51.407Z,77.89
2019-04-27T22:30:23.377Z,78.22
2019-04-27T22:32:55.628Z,78.11
2019-04-27T22:35:27.802Z,78.16
2019-04-27T22:38:01.802Z,78.43
2019-04-27T22:40:50.835Z,78.68
2019-04-27T22:43:42.963Z,79.03
2019-04-27T22:46:18.160Z,79.19
2019-04-27T22:48:51.679Z,79.63
2019-04-27T22:51:23.837Z,79.84
2019-04-27T22:53:55.983Z,79.71
2019-04-27T22:56:28.015Z,79.32
2019-04-27T22:59:11.432Z,79.18
2019-04-27T23:01:51.167Z,79.32
2019-04-27T23:04:32.374Z,79.89
2019-04-27T23:07:03.639Z,80.19
2019-04-27T23:09:35.555Z,80.55
2019-04-27T23:12:08.011Z,80.64
2019-04-27T23:14:41.474Z,80.86
2019-04-27T23:17:31.657Z,80.97
2019-04-27T23:20:03.892Z,81.02
2019-04-27T23:22:37.083Z,81.07
2019-04-27T23:25:11.155Z,80.89
2019-04-27T23:27:43.297Z,80.98
2019-04-27T23:30:16.541Z,81.12
2019-04-27T23:32:51.454Z,81.17
2019-04-27T23:35:23.624Z,81.21
2019-04-27T23:37:55.618Z,81.08
2019-04-27T23:40:27.636Z,81.21
2019-04-27T23:43:01.442Z,81.36
2019-04-27T23:45:33.371Z,81.51
2019-04-27T23:48:05.350Z,81.61
2019-04-27T23:50:39.326Z,81.58
2019-04-27T23:53:22.216Z,81.61
2019-04-27T23:55:54.262Z,81.79
2019-04-27T23:58:26.272Z,82.06
